createdAt,value
2018-07-11T00:01:59.583Z,71.40
2018-07-11T00:04:27.244Z,72.00
2018-07-11T00:06:55.013Z,72.70
2018-07-11T00:09:22.667Z,72.00
2018-07-11T00:11:50.356Z,71.80
2018-07-11T00:14:17.994Z,72.50
2018-07-11T00:16:51.259Z,72.60
2018-07-11T00:19:19.101Z,72.50
2018-07-11T00:21:46.674Z,71.90
2018-07-11T00:24:14.726Z,71.20
2018-07-11T00:26:42.441Z,71.10
2018-07-11T00:29:10.220Z,70.80
2018-07-11T00:31:37.905Z,70.80
2018-07-11T00:34:05.698Z,70.30
2018-07-11T00:36:33.482Z,70.80
2018-07-11T00:39:01.236Z,70.90
2018-07-11T00:41:29.110Z,70.20
2018-07-11T00:43:57.275Z,70.40
2018-07-11T00:46:25.043Z,71.00
2018-07-11T00:48:52.741Z,70.60
2018-07-11T00:51:20.442Z,70.20
2018-07-11T00:53:48.642Z,70.40
2018-07-11T00:56:21.141Z,70.20
2018-07-11T00:58:54.734Z,70.30
2018-07-11T01:01:22.359Z,69.80
2018-07-11T01:03:59.825Z,70.20
2018-07-11T01:06:29.817Z,69.70
2018-07-11T01:08:58.498Z,70.20
2018-07-11T01:11:31.410Z,70.10
2018-07-11T01:13:59.061Z,71.00
2018-07-11T01:16:26.725Z,70.90
2018-07-11T01:19:00.546Z,70.00
2018-07-11T01:21:28.654Z,70.20
2018-07-11T01:23:56.231Z,71.20
2018-07-11T01:26:26.369Z,71.30
2018-07-11T01:28:54.263Z,71.50
2018-07-11T01:31:22.365Z,71.30
2018-07-11T01:33:49.974Z,71.40
2018-07-11T01:36:17.732Z,71.20
2018-07-11T01:38:45.530Z,71.40
2018-07-11T01:41:14.678Z,71.60
2018-07-11T01:43:42.709Z,71.20
2018-07-11T01:46:10.410Z,71.00
2018-07-11T01:48:38.079Z,71.10
2018-07-11T01:51:06.282Z,71.80
2018-07-11T01:53:34.039Z,72.20
2018-07-11T01:56:02.119Z,72.70
2018-07-11T01:58:30.249Z,72.90
2018-07-11T02:00:58.048Z,71.90
2018-07-11T02:03:25.655Z,71.70
2018-07-11T02:05:53.788Z,72.00
2018-07-11T02:08:22.421Z,71.40
2018-07-11T02:10:50.106Z,72.90
2018-07-11T02:13:17.781Z,71.40
2018-07-11T02:15:47.050Z,70.90
2018-07-11T02:18:16.193Z,70.90
2018-07-11T02:20:44.017Z,71.20
2018-07-11T02:23:11.607Z,71.40
2018-07-11T02:25:39.375Z,72.40
2018-07-11T02:28:07.315Z,72.00
2018-07-11T02:30:35.481Z,73.70
2018-07-11T02:33:03.423Z,73.50
2018-07-11T02:35:31.054Z,72.90
2018-07-11T02:37:58.689Z,72.70
2018-07-11T02:40:26.404Z,74.40
2018-07-11T02:42:54.143Z,74.70
2018-07-11T02:45:21.788Z,73.90
2018-07-11T02:47:49.515Z,73.60
2018-07-11T02:50:17.373Z,73.80
2018-07-11T02:52:45.058Z,73.60
2018-07-11T02:55:12.741Z,73.10
2018-07-11T02:57:40.306Z,72.80
2018-07-11T03:00:08.140Z,73.40
2018-07-11T03:02:36.032Z,73.90
2018-07-11T03:05:03.995Z,73.90
2018-07-11T03:07:31.784Z,73.40
2018-07-11T03:09:59.419Z,73.00
2018-07-11T03:12:27.139Z,74.60
2018-07-11T03:14:54.718Z,74.10
2018-07-11T03:17:22.335Z,73.90
2018-07-11T03:19:49.952Z,73.40
2018-07-11T03:22:18.286Z,73.40
2018-07-11T03:24:45.804Z,72.90
2018-07-11T03:27:13.486Z,73.10
2018-07-11T03:29:41.449Z,73.40
2018-07-11T03:32:09.454Z,73.20
2018-07-11T03:34:37.250Z,72.00
2018-07-11T03:37:04.954Z,73.40
2018-07-11T03:39:33.199Z,73.70
2018-07-11T03:42:00.870Z,73.40
2018-07-11T03:44:28.506Z,73.00
2018-07-11T03:46:56.338Z,74.10
2018-07-11T03:49:23.924Z,73.60
2018-07-11T03:51:51.556Z,74.30
2018-07-11T03:54:19.183Z,73.70
2018-07-11T03:56:46.784Z,74.40
2018-07-11T03:59:14.479Z,74.90
2018-07-11T04:01:42.229Z,74.20
2018-07-11T04:04:09.822Z,74.50
2018-07-11T04:06:37.560Z,74.60
2018-07-11T04:09:05.489Z,73.60
2018-07-11T04:11:33.000Z,73.70
2018-07-11T04:14:00.540Z,73.10
2018-07-11T04:16:28.062Z,73.20
2018-07-11T04:18:55.703Z,73.40
2018-07-11T04:21:23.312Z,74.90
2018-07-11T04:23:50.937Z,74.40
2018-07-11T04:26:18.907Z,74.40
2018-07-11T04:28:46.580Z,75.20
2018-07-11T04:31:14.493Z,74.20
2018-07-11T04:33:42.037Z,73.90
2018-07-11T04:36:09.786Z,73.40
2018-07-11T04:38:37.487Z,72.70
2018-07-11T04:41:05.304Z,72.60
2018-07-11T04:43:33.002Z,72.30
2018-07-11T04:46:00.733Z,72.20
2018-07-11T04:48:28.500Z,72.20
2018-07-11T04:50:56.061Z,72.60
2018-07-11T04:53:25.864Z,72.80
2018-07-11T04:55:57.507Z,71.30
2018-07-11T04:58:25.375Z,71.50
2018-07-11T05:00:53.162Z,71.70
2018-07-11T05:03:20.806Z,71.90
2018-07-11T05:05:48.361Z,70.70
2018-07-11T05:08:15.975Z,71.50
2018-07-11T05:10:43.700Z,72.00
2018-07-11T05:13:11.382Z,72.70
2018-07-11T05:15:39.026Z,71.80
2018-07-11T05:18:07.088Z,72.80
2018-07-11T05:20:34.806Z,72.60
2018-07-11T05:23:03.876Z,72.30
2018-07-11T05:25:31.425Z,72.00
2018-07-11T05:28:00.960Z,71.90
2018-07-11T05:30:28.823Z,72.20
2018-07-11T05:32:57.503Z,71.50
2018-07-11T05:35:25.149Z,72.50
2018-07-11T05:37:53.010Z,71.20
2018-07-11T05:40:20.859Z,71.70
2018-07-11T05:42:48.630Z,71.70
2018-07-11T05:45:16.270Z,70.00
2018-07-11T05:47:44.008Z,70.40
2018-07-11T05:50:12.961Z,69.80
2018-07-11T05:52:42.820Z,69.40
2018-07-11T05:55:10.402Z,69.40
2018-07-11T05:57:38.082Z,69.00
2018-07-11T06:00:05.872Z,68.60
2018-07-11T06:02:34.252Z,68.90
2018-07-11T06:05:01.918Z,69.10
2018-07-11T06:07:29.631Z,68.20
2018-07-11T06:09:57.314Z,71.00
2018-07-11T06:12:24.839Z,70.20
2018-07-11T06:14:52.769Z,69.30
2018-07-11T06:17:20.490Z,69.30
2018-07-11T06:19:52.687Z,68.90
2018-07-11T06:22:20.312Z,68.60
2018-07-11T06:24:47.894Z,67.40
2018-07-11T06:27:15.479Z,67.40
2018-07-11T06:29:45.753Z,67.40
2018-07-11T06:32:13.405Z,67.50
2018-07-11T06:34:41.024Z,66.70
2018-07-11T06:37:08.639Z,67.60
2018-07-11T06:39:37.406Z,67.20
2018-07-11T06:42:05.811Z,66.20
2018-07-11T06:44:35.044Z,65.60
2018-07-11T06:47:08.675Z,64.30
2018-07-11T06:49:36.439Z,62.90
2018-07-11T06:52:04.326Z,62.70
2018-07-11T06:54:31.889Z,63.20
2018-07-11T06:56:59.473Z,63.00
2018-07-11T06:59:27.561Z,63.70
2018-07-11T07:01:55.158Z,61.80
2018-07-11T07:04:23.115Z,61.30
2018-07-11T07:06:50.885Z,61.60
2018-07-11T07:09:18.427Z,60.90
2018-07-11T07:11:46.029Z,61.20
2018-07-11T07:14:13.979Z,60.70
2018-07-11T07:16:41.629Z,60.40
2018-07-11T07:19:09.206Z,59.50
2018-07-11T07:21:36.907Z,60.30
2018-07-11T07:24:04.712Z,59.70
2018-07-11T07:26:33.100Z,59.40
2018-07-11T07:29:00.725Z,58.50
2018-07-11T07:31:28.363Z,57.80
2018-07-11T07:33:56.364Z,58.00
2018-07-11T07:36:23.996Z,57.10
2018-07-11T07:38:51.708Z,59.00
2018-07-11T07:41:19.283Z,57.50
2018-07-11T07:43:47.720Z,58.20
2018-07-11T07:46:15.453Z,57.80
2018-07-11T07:48:43.242Z,55.20
2018-07-11T07:51:12.292Z,55.40
2018-07-11T07:53:40.168Z,55.50
2018-07-11T07:56:07.979Z,56.10
2018-07-11T07:58:35.883Z,54.90
2018-07-11T08:01:03.809Z,56.30
2018-07-11T08:03:34.047Z,55.90
2018-07-11T08:06:01.741Z,56.20
2018-07-11T08:08:30.444Z,56.40
2018-07-11T08:10:58.051Z,56.10
2018-07-11T08:13:29.023Z,56.70
2018-07-11T08:15:56.903Z,56.70
2018-07-11T08:18:25.713Z,55.10
2018-07-11T08:20:53.843Z,55.10
2018-07-11T08:23:39.270Z,52.70
2018-07-11T08:26:18.383Z,52.70
2018-07-11T08:29:59.932Z,51.10
2018-07-11T08:32:47.466Z,49.80
2018-07-11T08:35:40.630Z,48.70
2018-07-11T08:38:22.037Z,48.60
2018-07-11T08:41:10.739Z,50.20
2018-07-11T08:43:48.041Z,51.10
2018-07-11T08:46:28.382Z,51.70
2018-07-11T08:53:26.722Z,51.90
2018-07-11T08:58:15.278Z,52.90
2018-07-11T09:02:07.103Z,53.00
2018-07-11T09:04:48.849Z,52.20
2018-07-11T09:09:40.250Z,52.30
2018-07-11T09:12:26.730Z,50.40
2018-07-11T09:15:06.363Z,48.40
2018-07-11T09:20:02.330Z,46.80
2018-07-11T09:24:45.458Z,47.20
2018-07-11T09:27:14.310Z,46.10
2018-07-11T09:29:42.902Z,43.20
2018-07-11T09:32:11.308Z,46.50
2018-07-11T09:35:03.680Z,46.40
2018-07-11T09:37:31.672Z,45.20
2018-07-11T09:40:00.290Z,43.90
2018-07-11T09:42:28.035Z,43.80
2018-07-11T09:44:55.710Z,42.50
2018-07-11T09:47:26.435Z,42.00
2018-07-11T09:49:54.082Z,42.10
2018-07-11T09:52:23.781Z,40.80
2018-07-11T09:54:51.695Z,39.70
2018-07-11T09:57:19.670Z,39.70
2018-07-11T09:59:47.374Z,40.40
2018-07-11T10:02:15.132Z,39.50
2018-07-11T10:04:42.937Z,39.90
2018-07-11T10:07:14.836Z,41.20
2018-07-11T10:10:03.586Z,41.50
2018-07-11T10:12:31.480Z,41.00
2018-07-11T10:14:59.274Z,41.80
2018-07-11T10:17:32.607Z,41.10
2018-07-11T10:20:00.164Z,41.00
2018-07-11T10:22:29.971Z,41.80
2018-07-11T10:24:57.750Z,41.20
2018-07-11T10:27:25.407Z,40.90
2018-07-11T10:29:53.040Z,40.40
2018-07-11T10:32:20.812Z,39.10
2018-07-11T10:34:48.778Z,37.90
2018-07-11T10:37:16.502Z,37.70
2018-07-11T10:39:45.728Z,37.30
2018-07-11T10:42:13.375Z,37.40
2018-07-11T10:44:41.256Z,38.20
2018-07-11T10:47:12.149Z,37.20
2018-07-11T10:49:40.339Z,37.70
2018-07-11T10:52:08.451Z,38.30
2018-07-11T10:54:36.375Z,36.70
2018-07-11T10:57:04.456Z,37.50
2018-07-11T10:59:36.235Z,35.50
2018-07-11T11:02:05.146Z,37.00
2018-07-11T11:04:33.999Z,37.40
2018-07-11T11:07:01.663Z,37.80
2018-07-11T11:09:31.525Z,36.40
2018-07-11T11:12:01.560Z,36.60
2018-07-11T11:14:44.654Z,36.30
2018-07-11T11:17:14.252Z,34.50
2018-07-11T11:19:43.184Z,35.00
2018-07-11T11:22:11.047Z,35.40
2018-07-11T11:24:38.874Z,36.10
2018-07-11T11:27:06.640Z,36.50
2018-07-11T11:29:34.397Z,35.50
2018-07-11T11:32:05.620Z,35.20
2018-07-11T11:34:33.475Z,33.10
2018-07-11T11:37:01.212Z,33.60
2018-07-11T11:39:30.005Z,33.80
2018-07-11T11:42:05.648Z,32.40
2018-07-11T11:44:33.480Z,31.50
2018-07-11T11:47:02.440Z,32.80
2018-07-11T11:49:31.552Z,31.50
2018-07-11T11:52:01.490Z,31.70
2018-07-11T11:54:29.395Z,30.60
2018-07-11T11:56:57.690Z,33.30
2018-07-11T11:59:25.329Z,31.50
2018-07-11T12:01:53.152Z,31.40
2018-07-11T12:04:20.722Z,31.00
2018-07-11T12:06:49.399Z,31.70
2018-07-11T12:09:17.178Z,30.00
2018-07-11T12:11:44.971Z,29.50
2018-07-11T12:14:12.600Z,29.80
2018-07-11T12:16:40.434Z,30.00
2018-07-11T12:19:09.254Z,31.30
2018-07-11T12:21:41.529Z,31.20
2018-07-11T12:24:09.295Z,32.10
2018-07-11T12:26:37.994Z,31.70
2018-07-11T12:29:05.640Z,31.90
2018-07-11T12:31:34.528Z,33.00
2018-07-11T12:34:02.435Z,34.20
2018-07-11T12:36:30.622Z,34.70
2018-07-11T12:38:59.332Z,35.80
2018-07-11T12:41:26.904Z,36.10
2018-07-11T12:43:54.511Z,36.40
2018-07-11T12:46:23.174Z,37.20
2018-07-11T12:48:56.313Z,39.70
2018-07-11T12:51:23.974Z,39.80
2018-07-11T12:53:51.787Z,40.70
2018-07-11T12:56:21.567Z,39.90
2018-07-11T12:58:49.377Z,39.40
2018-07-11T13:01:18.092Z,41.40
2018-07-11T13:03:46.920Z,39.90
2018-07-11T13:06:14.673Z,40.40
2018-07-11T13:08:42.444Z,39.40
2018-07-11T13:11:12.431Z,39.30
2018-07-11T13:13:40.154Z,39.10
2018-07-11T13:16:08.027Z,37.20
2018-07-11T13:18:35.912Z,36.70
2018-07-11T13:21:06.005Z,37.20
2018-07-11T13:23:33.668Z,35.50
2018-07-11T13:26:01.414Z,35.40
2018-07-11T13:28:30.194Z,33.00
2018-07-11T13:30:58.209Z,31.80
2018-07-11T13:33:26.023Z,33.50
2018-07-11T13:35:53.724Z,34.00
2018-07-11T13:38:21.632Z,32.50
2018-07-11T13:40:50.379Z,30.80
2018-07-11T13:43:19.193Z,30.30
2018-07-11T13:45:47.002Z,30.10
2018-07-11T13:48:14.752Z,30.40
2018-07-11T13:50:43.434Z,29.60
2018-07-11T13:53:29.568Z,29.40
2018-07-11T13:55:57.415Z,29.10
2018-07-11T13:58:25.099Z,28.10
2018-07-11T14:00:53.718Z,29.20
2018-07-11T14:03:21.436Z,28.40
2018-07-11T14:05:49.102Z,27.80
2018-07-11T14:08:16.748Z,28.90
2018-07-11T14:10:45.368Z,28.60
2018-07-11T14:13:12.981Z,28.60
2018-07-11T14:15:40.769Z,29.60
2018-07-11T14:18:08.396Z,28.10
2018-07-11T14:20:37.275Z,28.90
2018-07-11T14:23:07.750Z,28.90
2018-07-11T14:25:38.751Z,30.30
2018-07-11T14:28:06.604Z,31.00
2018-07-11T14:30:36.255Z,29.90
2018-07-11T14:33:05.627Z,29.40
2018-07-11T14:35:33.741Z,30.90
2018-07-11T14:38:01.402Z,32.00
2018-07-11T14:40:30.326Z,31.90
2018-07-11T14:42:58.463Z,31.90
2018-07-11T14:45:28.999Z,31.20
2018-07-11T14:48:01.186Z,31.80
2018-07-11T14:50:29.423Z,34.90
2018-07-11T14:52:57.358Z,35.50
2018-07-11T14:55:25.079Z,35.50
2018-07-11T14:57:52.706Z,39.90
2018-07-11T15:00:20.599Z,40.20
2018-07-11T15:02:48.236Z,43.00
2018-07-11T15:05:15.819Z,41.40
2018-07-11T15:07:44.603Z,43.90
2018-07-11T15:10:14.640Z,45.40
2018-07-11T15:12:42.908Z,45.80
2018-07-11T15:15:10.692Z,46.00
2018-07-11T15:17:38.357Z,46.70
2018-07-11T15:20:06.115Z,46.30
2018-07-11T15:22:33.973Z,45.60
2018-07-11T15:25:02.278Z,44.20
2018-07-11T15:27:30.506Z,43.70
2018-07-11T15:29:58.332Z,44.60
2018-07-11T15:32:26.027Z,43.40
2018-07-11T15:34:54.739Z,43.60
2018-07-11T15:37:23.784Z,43.60
2018-07-11T15:39:52.594Z,41.80
2018-07-11T15:42:20.466Z,42.60
2018-07-11T15:44:49.938Z,44.90
2018-07-11T15:47:20.651Z,41.80
2018-07-11T15:49:51.187Z,41.90
2018-07-11T15:52:26.212Z,44.20
2018-07-11T15:54:57.646Z,43.80
2018-07-11T15:57:39.421Z,43.10
2018-07-11T16:00:10.792Z,43.80
2018-07-11T16:02:42.619Z,41.70
2018-07-11T16:05:13.236Z,38.00
2018-07-11T16:07:43.710Z,38.40
2018-07-11T16:10:12.451Z,38.70
2018-07-11T16:12:40.936Z,37.40
2018-07-11T16:15:08.656Z,38.70
2018-07-11T16:17:36.353Z,39.50
2018-07-11T16:20:04.180Z,40.80
2018-07-11T16:22:31.903Z,41.30
2018-07-11T16:25:00.122Z,39.60
2018-07-11T16:27:27.772Z,41.20
2018-07-11T16:29:55.809Z,41.10
2018-07-11T16:32:23.408Z,44.60
2018-07-11T16:34:50.999Z,46.70
2018-07-11T16:37:18.889Z,43.60
2018-07-11T16:39:46.566Z,44.80
2018-07-11T16:42:15.030Z,46.70
2018-07-11T16:44:43.139Z,45.70
2018-07-11T16:47:10.842Z,47.60
2018-07-11T16:49:40.307Z,47.30
2018-07-11T16:52:08.164Z,46.70
2018-07-11T16:54:36.431Z,47.00
2018-07-11T16:57:04.731Z,47.70
2018-07-11T16:59:51.058Z,48.70
2018-07-11T17:02:22.509Z,46.00
2018-07-11T17:04:53.239Z,48.00
2018-07-11T17:07:23.496Z,48.20
2018-07-11T17:10:05.138Z,48.00
2018-07-11T17:12:33.195Z,47.70
2018-07-11T17:15:01.447Z,50.50
2018-07-11T17:17:33.830Z,50.00
2018-07-11T17:20:09.580Z,51.00
2018-07-11T17:22:44.374Z,50.90
2018-07-11T17:25:12.062Z,49.00
2018-07-11T17:27:39.800Z,48.00
2018-07-11T17:30:08.476Z,48.80
2018-07-11T17:32:36.500Z,45.40
2018-07-11T17:35:04.434Z,47.10
2018-07-11T17:37:33.841Z,45.20
2018-07-11T17:40:06.937Z,47.40
2018-07-11T17:42:35.081Z,47.20
2018-07-11T17:45:10.388Z,47.30
2018-07-11T17:48:14.778Z,48.40
2018-07-11T17:50:42.532Z,49.70
2018-07-11T17:53:21.294Z,52.00
2018-07-11T17:55:58.701Z,53.60
2018-07-11T17:59:07.090Z,53.20
2018-07-11T18:01:39.959Z,53.30
2018-07-11T18:04:14.544Z,54.50
2018-07-11T18:06:55.909Z,56.00
2018-07-11T18:09:23.733Z,55.30
2018-07-11T18:11:56.378Z,55.70
2018-07-11T18:14:28.899Z,56.20
2018-07-11T18:17:03.208Z,56.70
2018-07-11T18:20:41.963Z,56.40
2018-07-11T18:23:20.749Z,56.00
2018-07-11T18:28:02.738Z,55.80
2018-07-11T18:30:37.109Z,56.90
2018-07-11T18:33:19.808Z,58.50
2018-07-11T18:38:00.489Z,58.90
2018-07-11T18:40:32.770Z,58.40
2018-07-11T18:44:17.650Z,57.50
2018-07-11T18:47:10.123Z,57.60
2018-07-11T18:51:55.471Z,59.40
2018-07-11T18:54:33.380Z,59.30
2018-07-11T18:57:05.096Z,59.20
2018-07-11T18:59:55.093Z,59.20
2018-07-11T19:03:37.329Z,58.80
2018-07-11T19:06:15.444Z,59.90
2018-07-11T19:09:18.963Z,59.10
2018-07-11T19:11:52.797Z,60.30
2018-07-11T19:14:42.099Z,61.20
2018-07-11T19:17:31.768Z,63.00
2018-07-11T19:20:36.282Z,64.00
2018-07-11T19:25:17.225Z,67.10
2018-07-11T19:27:54.234Z,68.40
2018-07-11T19:30:36.260Z,65.70
2018-07-11T19:33:14.551Z,66.40
2018-07-11T19:35:49.755Z,63.60
2018-07-11T19:38:26.897Z,64.10
2018-07-11T19:41:07.262Z,66.50
2018-07-11T19:43:46.138Z,67.00
2018-07-11T19:48:30.852Z,66.90
2018-07-11T19:51:13.308Z,65.80
2018-07-11T19:54:06.097Z,66.20
2018-07-11T19:56:39.439Z,67.70
2018-07-11T19:59:07.855Z,68.90
2018-07-11T20:01:36.537Z,68.50
2018-07-11T20:04:04.280Z,68.90
2018-07-11T20:06:32.041Z,70.60
2018-07-11T20:08:59.795Z,72.00
2018-07-11T20:11:28.771Z,73.20
2018-07-11T20:13:58.378Z,73.20
2018-07-11T20:16:26.105Z,73.00
2018-07-11T20:18:54.013Z,72.70
2018-07-11T20:21:28.412Z,73.30
2018-07-11T20:23:56.592Z,72.70
2018-07-11T20:26:25.366Z,71.70
2018-07-11T20:28:53.044Z,71.60
2018-07-11T20:31:21.874Z,71.70
2018-07-11T20:33:49.626Z,72.00
2018-07-11T20:36:17.238Z,72.00
2018-07-11T20:38:44.962Z,70.30
2018-07-11T20:41:12.694Z,70.60
2018-07-11T20:43:40.562Z,71.00
2018-07-11T20:46:08.734Z,69.40
2018-07-11T20:48:38.551Z,70.50
2018-07-11T20:51:06.595Z,69.90
2018-07-11T20:53:34.447Z,71.60
2018-07-11T20:56:02.043Z,71.70
2018-07-11T20:58:40.889Z,72.50
2018-07-11T21:01:19.630Z,73.10
2018-07-11T21:06:10.180Z,73.20
2018-07-11T21:09:54.624Z,72.70
2018-07-11T21:12:31.845Z,72.30
2018-07-11T21:15:10.543Z,72.60
2018-07-11T21:17:53.667Z,72.90
2018-07-11T21:20:21.320Z,72.70
2018-07-11T21:22:48.976Z,72.90
2018-07-11T21:25:16.557Z,72.70
2018-07-11T21:27:44.197Z,73.80
2018-07-11T21:30:11.803Z,74.10
2018-07-11T21:32:39.421Z,74.20
2018-07-11T21:35:07.142Z,73.60
2018-07-11T21:37:34.792Z,74.50
2018-07-11T21:40:02.381Z,75.00
2018-07-11T21:42:30.043Z,75.40
2018-07-11T21:44:57.644Z,75.20
2018-07-11T21:47:25.208Z,74.80
2018-07-11T21:49:52.994Z,75.70
2018-07-11T21:52:20.645Z,75.10
2018-07-11T21:54:48.356Z,74.30
2018-07-11T21:57:16.106Z,74.90
2018-07-11T21:59:44.159Z,74.90
2018-07-11T22:02:12.004Z,74.00
2018-07-11T22:04:39.768Z,74.40
2018-07-11T22:07:07.733Z,74.10
2018-07-11T22:09:35.487Z,74.40
2018-07-11T22:12:03.113Z,74.50
2018-07-11T22:14:30.782Z,74.50
2018-07-11T22:19:10.456Z,74.70
2018-07-11T22:21:37.088Z,75.00
2018-07-11T22:24:03.599Z,75.30
2018-07-11T22:26:30.337Z,75.80
2018-07-11T22:28:56.778Z,75.70
2018-07-11T22:31:23.339Z,76.30
2018-07-11T22:33:49.809Z,76.00
2018-07-11T22:36:16.312Z,75.50
2018-07-11T22:38:42.852Z,75.60
2018-07-11T22:41:09.346Z,75.50
2018-07-11T22:43:35.893Z,75.70
2018-07-11T22:46:04.279Z,75.80
2018-07-11T22:48:30.787Z,76.50
2018-07-11T22:50:57.480Z,76.50
2018-07-11T22:53:24.186Z,76.60
2018-07-11T22:55:50.743Z,77.10
2018-07-11T22:58:17.230Z,76.70
2018-07-11T23:00:43.700Z,77.30
2018-07-11T23:03:10.226Z,77.00
2018-07-11T23:05:36.839Z,76.50
2018-07-11T23:08:03.374Z,76.20
2018-07-11T23:10:29.952Z,76.60
2018-07-11T23:12:56.440Z,76.90
2018-07-11T23:15:22.895Z,76.90
2018-07-11T23:17:49.387Z,77.00
2018-07-11T23:20:15.888Z,77.30
2018-07-11T23:22:42.407Z,77.50
2018-07-11T23:25:08.868Z,77.80
2018-07-11T23:27:35.630Z,77.70
2018-07-11T23:30:02.181Z,77.30
2018-07-11T23:32:28.702Z,78.20
2018-07-11T23:34:55.243Z,77.40
2018-07-11T23:37:21.927Z,77.20
2018-07-11T23:39:48.659Z,77.70
2018-07-11T23:42:15.122Z,76.80
2018-07-11T23:44:41.666Z,77.30
2018-07-11T23:47:08.147Z,78.40
2018-07-11T23:49:34.660Z,78.40
2018-07-11T23:52:01.232Z,78.40
2018-07-11T23:54:27.726Z,78.40
2018-07-11T23:56:54.476Z,78.40
2018-07-11T23:59:20.931Z,78.40
